Time;durP1;ratioP1;P1;durP2;ratioP2;P2;SDS_P1;SDS_P2;PMS_P1;PMS_P2;Temp;Humidity;BMP_temperature;BMP_pressure;BME280_temperature;BME280_humidity;BME280_pressure;Samples;Min_cycle;Max_cycle;Signal;HPM_P1;HPM_P2
2022/12/04 00:00:49;;;;;;;12.02;8.55;;;;;;;;;;6218554;28;20073;-75
2022/12/04 00:03:52;;;;;;;12.23;8.82;;;;;;;;;;6221164;28;20238;-74
2022/12/04 00:06:56;;;;;;;13.38;9.45;;;;;;;;;;6225979;28;20080;-75
2022/12/04 00:09:57;;;;;;;12.88;8.50;;;;;;;;;;6226370;28;20061;-75
2022/12/04 00:12:59;;;;;;;11.77;8.98;;;;;;;;;;6226252;28;20046;-75
2022/12/04 00:16:01;;;;;;;11.15;8.95;;;;;;;;;;6224195;28;20069;-75
2022/12/04 00:19:03;;;;;;;13.43;9.32;;;;;;;;;;6228589;28;20042;-75
2022/12/04 00:22:06;;;;;;;14.70;9.30;;;;;;;;;;6226150;28;20069;-76
2022/12/04 00:25:08;;;;;;;12.18;9.05;;;;;;;;;;6226570;28;20065;-75
2022/12/04 00:28:10;;;;;;;11.88;8.98;;;;;;;;;;6226726;28;20100;-75
2022/12/04 00:31:13;;;;;;;12.32;8.93;;;;;;;;;;6222330;28;20066;-75
2022/12/04 00:34:15;;;;;;;15.13;9.15;;;;;;;;;;6225557;28;22332;-75
2022/12/04 00:37:18;;;;;;;14.18;9.38;;;;;;;;;;6225753;28;20057;-74
2022/12/04 00:40:20;;;;;;;11.65;8.90;;;;;;;;;;6224823;28;20840;-74
2022/12/04 00:43:22;;;;;;;11.25;8.88;;;;;;;;;;6225669;28;20353;-75
2022/12/04 00:46:24;;;;;;;12.88;9.95;;;;;;;;;;6223453;28;20087;-75
2022/12/04 00:49:26;;;;;;;12.32;8.68;;;;;;;;;;6220814;28;20318;-75
2022/12/04 00:52:28;;;;;;;12.18;9.25;;;;;;;;;;6225483;28;20046;-76
2022/12/04 00:55:30;;;;;;;11.90;9.43;;;;;;;;;;6225137;28;20108;-75
2022/12/04 00:58:32;;;;;;;15.60;9.70;;;;;;;;;;6225416;28;20076;-75
2022/12/04 01:01:34;;;;;;;14.65;10.05;;;;;;;;;;6224906;28;20054;-76
2022/12/04 01:04:35;;;;;;;12.88;9.55;;;;;;;;;;6225414;28;20412;-75
2022/12/04 01:07:38;;;;;;;13.88;9.93;;;;;;;;;;6225493;28;20060;-75
2022/12/04 01:10:41;;;;;;;14.23;9.70;;;;;;;;;;6227467;28;20061;-76
2022/12/04 01:13:44;;;;;;;15.88;10.93;;;;;;;;;;6223929;28;20038;-76
2022/12/04 01:16:47;;;;;;;13.40;9.93;;;;;;;;;;6223791;28;20054;-75
2022/12/04 01:19:49;;;;;;;12.98;9.77;;;;;;;;;;6223533;28;20065;-75
2022/12/04 01:22:51;;;;;;;14.00;10.00;;;;;;;;;;6227379;28;20057;-76
2022/12/04 01:25:55;;;;;;;14.43;10.63;;;;;;;;;;6225426;28;20050;-75
2022/12/04 01:28:57;;;;;;;13.85;10.70;;;;;;;;;;6225220;28;20357;-75
2022/12/04 01:31:58;;;;;;;16.15;10.23;;;;;;;;;;6224939;28;20114;-75
2022/12/04 01:35:00;;;;;;;15.20;10.45;;;;;;;;;;6224997;28;20069;-75
2022/12/04 01:38:03;;;;;;;14.00;10.43;;;;;;;;;;6225667;28;20045;-75
2022/12/04 01:41:05;;;;;;;13.15;10.02;;;;;;;;;;6224278;28;20054;-75
2022/12/04 01:44:14;;;;;;;15.57;10.25;;;;;;;;;;6222932;28;20058;-75
2022/12/04 01:47:16;;;;;;;14.40;10.20;;;;;;;;;;6224005;28;20057;-75
2022/12/04 01:50:18;;;;;;;13.02;10.27;;;;;;;;;;6223739;28;20222;-75
2022/12/04 01:53:21;;;;;;;13.18;10.18;;;;;;;;;;6223880;28;20050;-75
2022/12/04 01:56:26;;;;;;;15.50;10.70;;;;;;;;;;6220780;28;20054;-75
2022/12/04 01:59:31;;;;;;;15.85;11.20;;;;;;;;;;6223390;28;20054;-75
2022/12/04 02:02:35;;;;;;;14.45;11.13;;;;;;;;;;6224015;28;20246;-75
2022/12/04 02:05:37;;;;;;;;;;;;;;;;;;6224732;28;20220;-76
2022/12/04 02:08:40;;;;;;;13.60;10.05;;;;;;;;;;6225830;28;20145;-75
2022/12/04 02:11:47;;;;;;;12.98;10.07;;;;;;;;;;6224147;28;20380;-76
2022/12/04 02:14:54;;;;;;;15.00;10.27;;;;;;;;;;6223910;28;20072;-75
2022/12/04 02:18:00;;;;;;;14.27;10.75;;;;;;;;;;6224564;28;20072;-75
2022/12/04 02:21:06;;;;;;;14.25;10.10;;;;;;;;;;6223616;28;20089;-74
2022/12/04 02:24:22;;;;;;;15.60;10.75;;;;;;;;;;6222756;28;20045;-75
2022/12/04 02:27:46;;;;;;;13.73;10.85;;;;;;;;;;6222495;28;20065;-74
2022/12/04 02:30:48;;;;;;;13.10;10.00;;;;;;;;;;6222063;28;20057;-75
2022/12/04 02:33:55;;;;;;;13.88;9.93;;;;;;;;;;6222674;28;20050;-74
2022/12/04 02:37:01;;;;;;;14.50;10.52;;;;;;;;;;6225929;28;20054;-75
2022/12/04 02:40:05;;;;;;;13.23;10.23;;;;;;;;;;6223750;28;20065;-73
2022/12/04 02:43:12;;;;;;;13.82;9.73;;;;;;;;;;6223946;28;20061;-75
2022/12/04 02:46:17;;;;;;;14.27;10.57;;;;;;;;;;6219225;28;20050;-75
2022/12/04 02:49:22;;;;;;;16.83;10.20;;;;;;;;;;6222449;28;20096;-75
2022/12/04 02:52:27;;;;;;;12.57;9.60;;;;;;;;;;6226136;28;20053;-74
2022/12/04 02:55:31;;;;;;;14.25;9.82;;;;;;;;;;6223768;28;20101;-75
2022/12/04 02:58:37;;;;;;;12.38;9.25;;;;;;;;;;6223241;28;20450;-76
2022/12/04 03:01:41;;;;;;;14.00;9.32;;;;;;;;;;6224153;28;20053;-75
2022/12/04 03:04:42;;;;;;;;;;;;;;;;;;6225773;28;20046;-75
2022/12/04 03:07:47;;;;;;;12.10;9.02;;;;;;;;;;6222133;28;19924;-76
2022/12/04 03:10:51;;;;;;;12.02;9.05;;;;;;;;;;6225738;28;20100;-75
2022/12/04 03:13:57;;;;;;;11.48;8.50;;;;;;;;;;6223284;28;20053;-75
2022/12/04 03:17:03;;;;;;;12.95;9.27;;;;;;;;;;6223698;28;20061;-76
2022/12/04 03:20:08;;;;;;;11.50;8.77;;;;;;;;;;6222259;28;20049;-75
2022/12/04 03:23:14;;;;;;;12.82;8.68;;;;;;;;;;6222274;28;20068;-76
2022/12/04 03:26:22;;;;;;;11.60;8.15;;;;;;;;;;6219327;28;20077;-75
2022/12/04 03:29:28;;;;;;;10.60;8.20;;;;;;;;;;6223222;28;21603;-76
2022/12/04 03:32:34;;;;;;;11.25;7.93;;;;;;;;;;6221305;28;20050;-75
2022/12/04 03:35:41;;;;;;;11.70;8.20;;;;;;;;;;6221451;28;20128;-76
2022/12/04 03:38:47;;;;;;;12.90;8.63;;;;;;;;;;6221256;28;20274;-75
2022/12/04 03:41:56;;;;;;;12.05;8.30;;;;;;;;;;6218427;28;20292;-75
2022/12/04 03:45:03;;;;;;;10.77;7.93;;;;;;;;;;6225239;28;20045;-75
2022/12/04 03:48:07;;;;;;;10.38;7.18;;;;;;;;;;6221992;28;20443;-76
2022/12/04 03:51:13;;;;;;;12.45;8.60;;;;;;;;;;6222750;28;20058;-75
2022/12/04 03:54:17;;;;;;;10.40;7.63;;;;;;;;;;6221014;28;20092;-76
2022/12/04 03:57:20;;;;;;;9.85;7.43;;;;;;;;;;6220137;28;20057;-75
2022/12/04 04:00:24;;;;;;;10.75;7.60;;;;;;;;;;6220696;28;20045;-76
2022/12/04 04:03:28;;;;;;;9.70;7.60;;;;;;;;;;6216441;28;20065;-75
2022/12/04 04:06:32;;;;;;;10.07;7.05;;;;;;;;;;6221082;28;20058;-75
2022/12/04 04:09:36;;;;;;;9.90;7.20;;;;;;;;;;6218122;28;20053;-75
2022/12/04 04:12:41;;;;;;;12.25;6.90;;;;;;;;;;6219932;28;20065;-74
2022/12/04 04:25:45;;;;;;;7.63;5.35;;;;;;;;;;6220020;28;20275;-75
2022/12/04 04:28:46;;;;;;;6.32;4.70;;;;;;;;;;6221950;28;20057;-76
2022/12/04 04:31:57;;;;;;;6.57;4.78;;;;;;;;;;6219439;28;20061;-75
2022/12/04 04:35:05;;;;;;;8.38;5.05;;;;;;;;;;6218603;28;20058;-74
2022/12/04 04:38:11;;;;;;;5.90;4.18;;;;;;;;;;6220864;28;20238;-75
2022/12/04 04:41:16;;;;;;;6.15;3.97;;;;;;;;;;6221359;28;20045;-73
2022/12/04 04:44:24;;;;;;;4.18;3.22;;;;;;;;;;6222295;28;20396;-75
2022/12/04 04:47:30;;;;;;;5.72;3.25;;;;;;;;;;6220223;28;20124;-75
2022/12/04 04:50:32;;;;;;;4.03;3.10;;;;;;;;;;6223276;28;20108;-75
2022/12/04 04:53:37;;;;;;;4.57;3.38;;;;;;;;;;6225836;28;20445;-75
2022/12/04 04:56:42;;;;;;;5.68;3.20;;;;;;;;;;6227491;28;20226;-75
2022/12/04 04:59:44;;;;;;;5.35;3.20;;;;;;;;;;6225384;28;20330;-74
2022/12/04 05:02:47;;;;;;;3.65;2.45;;;;;;;;;;6226491;28;20100;-75
2022/12/04 05:05:49;;;;;;;5.10;2.88;;;;;;;;;;6224541;28;20372;-75
2022/12/04 05:08:50;;;;;;;3.90;2.83;;;;;;;;;;6224290;28;20066;-75
2022/12/04 05:11:52;;;;;;;4.65;2.80;;;;;;;;;;6225178;28;20100;-75
2022/12/04 05:14:54;;;;;;;4.70;3.30;;;;;;;;;;6224254;28;20049;-76
2022/12/04 05:17:57;;;;;;;4.18;2.95;;;;;;;;;;6223337;28;20207;-76
2022/12/04 05:20:57;;;;;;;4.72;3.10;;;;;;;;;;6224985;28;20062;-75
2022/12/04 05:23:59;;;;;;;5.60;3.72;;;;;;;;;;6223639;28;20096;-76
2022/12/04 05:27:01;;;;;;;5.18;4.05;;;;;;;;;;6224641;28;20057;-75
2022/12/04 05:30:03;;;;;;;6.07;4.22;;;;;;;;;;6227145;28;20057;-76
2022/12/04 05:33:06;;;;;;;6.78;4.68;;;;;;;;;;6225097;28;20092;-76
2022/12/04 05:36:10;;;;;;;5.63;4.25;;;;;;;;;;6223815;28;20050;-76
2022/12/04 05:39:12;;;;;;;6.57;4.32;;;;;;;;;;6222385;28;20073;-75
2022/12/04 05:42:14;;;;;;;6.43;3.97;;;;;;;;;;6223090;28;20234;-75
2022/12/04 05:45:15;;;;;;;5.47;4.10;;;;;;;;;;6224747;28;20133;-76
2022/12/04 05:48:19;;;;;;;4.45;3.58;;;;;;;;;;6223612;28;20050;-75
2022/12/04 05:51:20;;;;;;;4.60;3.53;;;;;;;;;;6224911;28;20062;-76
2022/12/04 05:54:22;;;;;;;4.13;3.22;;;;;;;;;;6224471;28;20076;-75
2022/12/04 05:57:23;;;;;;;4.05;3.28;;;;;;;;;;6222390;28;20137;-75
2022/12/04 06:00:25;;;;;;;3.78;3.03;;;;;;;;;;6221202;28;20335;-76
2022/12/04 06:03:28;;;;;;;4.60;2.75;;;;;;;;;;6225135;28;20058;-76
2022/12/04 06:06:30;;;;;;;4.13;2.72;;;;;;;;;;6222846;28;20049;-76
2022/12/04 06:09:31;;;;;;;4.05;2.70;;;;;;;;;;6221943;28;20065;-76
2022/12/04 06:12:33;;;;;;;3.67;2.78;;;;;;;;;;6225112;28;20065;-76
2022/12/04 06:15:38;;;;;;;3.63;2.72;;;;;;;;;;6223352;28;20054;-76
2022/12/04 06:18:41;;;;;;;;;;;;;;;;;;6222465;28;20330;-76
2022/12/04 06:21:43;;;;;;;3.33;2.30;;;;;;;;;;6223389;28;19932;-76
2022/12/04 06:24:45;;;;;;;3.40;2.50;;;;;;;;;;6225050;28;20108;-76
2022/12/04 06:27:47;;;;;;;3.33;2.33;;;;;;;;;;6222410;28;20049;-76
2022/12/04 06:30:48;;;;;;;4.13;2.80;;;;;;;;;;6225117;28;20057;-75
2022/12/04 06:33:52;;;;;;;3.40;2.67;;;;;;;;;;6223099;28;20072;-75
2022/12/04 06:36:54;;;;;;;3.45;2.42;;;;;;;;;;6224934;28;20105;-76
2022/12/04 06:39:56;;;;;;;2.95;2.47;;;;;;;;;;6224259;28;20058;-76
2022/12/04 06:42:57;;;;;;;2.80;2.45;;;;;;;;;;6222798;28;20062;-76
2022/12/04 06:46:00;;;;;;;3.60;3.08;;;;;;;;;;6221772;28;20050;-75
2022/12/04 06:49:03;;;;;;;3.35;2.90;;;;;;;;;;6221502;28;20093;-76
2022/12/04 06:52:05;;;;;;;4.60;2.70;;;;;;;;;;6222261;28;20065;-75
2022/12/04 06:55:07;;;;;;;4.15;2.75;;;;;;;;;;6224371;28;20081;-75
2022/12/04 06:58:09;;;;;;;4.63;2.60;;;;;;;;;;6222457;28;20081;-74
2022/12/04 07:01:12;;;;;;;3.67;2.67;;;;;;;;;;6223935;28;20053;-75
2022/12/04 07:04:15;;;;;;;5.57;2.97;;;;;;;;;;6222529;28;20053;-75
2022/12/04 07:07:17;;;;;;;3.58;3.00;;;;;;;;;;6224153;28;20053;-76
2022/12/04 07:10:18;;;;;;;3.85;2.75;;;;;;;;;;6222286;28;20289;-76
2022/12/04 07:13:20;;;;;;;4.47;3.35;;;;;;;;;;6220378;28;20103;-76
2022/12/04 07:16:23;;;;;;;4.18;3.08;;;;;;;;;;6223313;28;20073;-77
2022/12/04 07:19:26;;;;;;;4.45;3.25;;;;;;;;;;6219170;28;20049;-75
2022/12/04 07:22:28;;;;;;;4.18;3.25;;;;;;;;;;6221406;28;20042;-75
2022/12/04 07:25:30;;;;;;;4.47;3.05;;;;;;;;;;6222958;28;20054;-78
2022/12/04 07:28:31;;;;;;;5.35;3.38;;;;;;;;;;6220681;28;20118;-77
2022/12/04 07:31:33;;;;;;;4.07;2.97;;;;;;;;;;6223828;28;20253;-77
2022/12/04 07:34:36;;;;;;;5.10;3.70;;;;;;;;;;6219665;28;20234;-78
2022/12/04 07:37:38;;;;;;;5.07;3.63;;;;;;;;;;6224415;28;20098;-78
2022/12/04 07:40:39;;;;;;;4.03;3.08;;;;;;;;;;6222818;28;20057;-77
2022/12/04 07:43:41;;;;;;;4.13;3.10;;;;;;;;;;6220523;28;20054;-78
2022/12/04 07:46:43;;;;;;;4.90;3.20;;;;;;;;;;6222939;28;20237;-77
2022/12/04 07:49:46;;;;;;;4.25;3.40;;;;;;;;;;6221630;28;20053;-76
2022/12/04 07:52:48;;;;;;;5.55;3.15;;;;;;;;;;6221956;28;20097;-77
2022/12/04 07:55:52;;;;;;;4.30;2.92;;;;;;;;;;6220614;28;20333;-74
2022/12/04 07:58:54;;;;;;;3.35;2.53;;;;;;;;;;6221426;28;20050;-78
2022/12/04 08:01:55;;;;;;;5.35;3.15;;;;;;;;;;6220902;28;20057;-77
2022/12/04 08:04:58;;;;;;;3.95;2.60;;;;;;;;;;6223107;28;20054;-77
2022/12/04 08:08:00;;;;;;;3.08;2.25;;;;;;;;;;6218953;28;20058;-77
2022/12/04 08:11:05;;;;;;;9.10;2.47;;;;;;;;;;6221303;28;20050;-77
2022/12/04 08:14:08;;;;;;;3.72;2.60;;;;;;;;;;6222604;28;20065;-78
2022/12/04 08:17:10;;;;;;;4.18;2.20;;;;;;;;;;6220351;28;20276;-77
2022/12/04 08:20:13;;;;;;;4.25;2.72;;;;;;;;;;6221860;28;20053;-77
2022/12/04 08:23:14;;;;;;;6.47;3.88;;;;;;;;;;6220518;28;20096;-79
2022/12/04 08:26:16;;;;;;;4.50;3.03;;;;;;;;;;6223164;28;20070;-77
2022/12/04 08:29:18;;;;;;;4.38;3.08;;;;;;;;;;6227592;28;20097;-78
2022/12/04 08:32:20;;;;;;;4.35;3.20;;;;;;;;;;6225760;28;20050;-75
2022/12/04 08:35:23;;;;;;;4.32;3.50;;;;;;;;;;6225411;28;20065;-78
2022/12/04 08:38:25;;;;;;;5.47;4.00;;;;;;;;;;6226834;28;20054;-77
2022/12/04 08:41:27;;;;;;;5.97;4.13;;;;;;;;;;6223390;28;20060;-76
2022/12/04 08:44:28;;;;;;;5.38;4.20;;;;;;;;;;6226066;28;20045;-75
2022/12/04 08:47:30;;;;;;;6.03;4.57;;;;;;;;;;6222951;28;20054;-77
2022/12/04 08:50:33;;;;;;;5.90;4.47;;;;;;;;;;6223639;28;20054;-77
2022/12/04 08:53:36;;;;;;;6.80;4.85;;;;;;;;;;6224982;28;20057;-77
2022/12/04 08:56:37;;;;;;;5.68;4.95;;;;;;;;;;6226867;28;20120;-78
2022/12/04 08:59:39;;;;;;;8.43;5.43;;;;;;;;;;6227091;28;20053;-78
2022/12/04 09:02:41;;;;;;;7.00;4.85;;;;;;;;;;6224735;28;20282;-78
2022/12/04 09:05:44;;;;;;;6.57;4.60;;;;;;;;;;6223387;28;20046;-77
2022/12/04 09:08:46;;;;;;;7.65;5.07;;;;;;;;;;6223255;28;20114;-78
2022/12/04 09:11:48;;;;;;;7.20;5.30;;;;;;;;;;6225019;28;20103;-77
2022/12/04 09:14:49;;;;;;;7.75;5.72;;;;;;;;;;6228324;28;20060;-77
2022/12/04 09:17:51;;;;;;;8.77;5.25;;;;;;;;;;6225027;28;20057;-78
2022/12/04 09:20:58;;;;;;;8.55;5.78;;;;;;;;;;6227033;28;20148;-78
2022/12/04 09:24:00;;;;;;;8.70;6.78;;;;;;;;;;6225878;28;20062;-77
2022/12/04 09:27:01;;;;;;;8.95;6.78;;;;;;;;;;6224427;28;20100;-78
2022/12/04 09:30:04;;;;;;;8.93;6.68;;;;;;;;;;6222909;28;20046;-78
2022/12/04 09:33:05;;;;;;;9.45;6.80;;;;;;;;;;6225712;28;20050;-77
2022/12/04 09:36:14;;;;;;;10.65;7.78;;;;;;;;;;6223713;28;20050;-77
2022/12/04 09:39:16;;;;;;;13.30;10.10;;;;;;;;;;6223638;28;20054;-77
2022/12/04 09:42:25;;;;;;;14.98;10.98;;;;;;;;;;6222835;28;20053;-78
2022/12/04 09:45:27;;;;;;;19.25;11.80;;;;;;;;;;6224175;28;20047;-77
2022/12/04 09:48:33;;;;;;;17.35;12.45;;;;;;;;;;6224620;28;20042;-77
2022/12/04 09:51:37;;;;;;;17.75;12.35;;;;;;;;;;6225193;28;20361;-78
2022/12/04 09:54:41;;;;;;;17.88;12.57;;;;;;;;;;6223738;28;20072;-78
2022/12/04 09:57:44;;;;;;;17.50;12.23;;;;;;;;;;6224776;28;20065;-78
2022/12/04 10:00:49;;;;;;;22.97;13.93;;;;;;;;;;6224650;28;20120;-77
2022/12/04 10:03:50;;;;;;;22.88;14.30;;;;;;;;;;6222491;28;20465;-78
2022/12/04 10:06:58;;;;;;;21.33;14.65;;;;;;;;;;6226859;28;20292;-78
2022/12/04 10:10:04;;;;;;;21.35;14.77;;;;;;;;;;6222872;28;20108;-78
2022/12/04 10:13:18;;;;;;;21.13;14.32;;;;;;;;;;6221985;28;20054;-78
2022/12/04 10:16:24;;;;;;;21.80;14.93;;;;;;;;;;6223415;28;20042;-78
2022/12/04 10:19:31;;;;;;;24.05;15.45;;;;;;;;;;6224934;28;20058;-78
2022/12/04 10:22:40;;;;;;;24.77;16.27;;;;;;;;;;6221355;28;20053;-78
2022/12/04 10:25:42;;;;;;;25.15;16.67;;;;;;;;;;6220362;28;20053;-78
2022/12/04 10:28:48;;;;;;;29.13;18.92;;;;;;;;;;6225091;28;20340;-78
2022/12/04 10:31:51;;;;;;;28.02;18.77;;;;;;;;;;6223267;28;20053;-77
2022/12/04 10:34:55;;;;;;;29.85;19.60;;;;;;;;;;6224247;28;20274;-74
2022/12/04 10:38:02;;;;;;;26.35;18.00;;;;;;;;;;6225078;28;20046;-80
2022/12/04 10:41:08;;;;;;;26.80;18.08;;;;;;;;;;6226230;28;20054;-79
2022/12/04 10:44:13;;;;;;;28.33;19.02;;;;;;;;;;6224100;28;20057;-79
2022/12/04 10:47:15;;;;;;;29.33;19.27;;;;;;;;;;6222002;28;20073;-79
2022/12/04 10:50:19;;;;;;;28.65;18.02;;;;;;;;;;6224292;28;20037;-79
2022/12/04 10:53:26;;;;;;;21.77;14.32;;;;;;;;;;6224379;28;20116;-79
2022/12/04 10:56:28;;;;;;;22.50;14.18;;;;;;;;;;6226553;28;20046;-79
2022/12/04 10:59:30;;;;;;;20.15;14.55;;;;;;;;;;6222552;28;20080;-79
2022/12/04 11:02:33;;;;;;;16.77;12.20;;;;;;;;;;6223829;28;20042;-80
2022/12/04 11:05:38;;;;;;;15.93;11.40;;;;;;;;;;6221742;28;20058;-80
2022/12/04 11:08:44;;;;;;;15.75;11.00;;;;;;;;;;6221127;28;20064;-80
2022/12/04 11:11:45;;;;;;;15.13;11.27;;;;;;;;;;6221118;28;20154;-80
2022/12/04 11:14:47;;;;;;;13.77;11.30;;;;;;;;;;6221773;28;20088;-79
2022/12/04 11:17:49;;;;;;;17.50;11.93;;;;;;;;;;6223087;28;20054;-79
2022/12/04 11:20:52;;;;;;;16.42;11.73;;;;;;;;;;6219814;28;20095;-78
2022/12/04 11:23:55;;;;;;;15.87;11.53;;;;;;;;;;6222301;28;20242;-79
2022/12/04 11:26:57;;;;;;;14.98;10.70;;;;;;;;;;6222676;28;20108;-79
2022/12/04 11:30:02;;;;;;;15.68;10.35;;;;;;;;;;6223269;28;20057;-80
2022/12/04 11:33:05;;;;;;;14.27;10.32;;;;;;;;;;6222608;28;20236;-79
2022/12/04 11:36:19;;;;;;;13.88;10.32;;;;;;;;;;6225155;28;20045;-81
2022/12/04 11:39:27;;;;;;;14.02;10.15;;;;;;;;;;6220904;28;20064;-79
2022/12/04 11:42:30;;;;;;;15.27;9.75;;;;;;;;;;6220591;28;20053;-80
2022/12/04 11:45:32;;;;;;;14.93;9.90;;;;;;;;;;6223350;28;20096;-80
2022/12/04 11:48:42;;;;;;;14.02;9.80;;;;;;;;;;6221878;28;20056;-80
2022/12/04 11:51:54;;;;;;;13.93;9.63;;;;;;;;;;6222934;28;20138;-81
2022/12/04 11:55:02;;;;;;;14.90;10.35;;;;;;;;;;6220027;28;20061;-80
2022/12/04 11:58:35;;;;;;;15.35;10.63;;;;;;;;;;6222972;28;20294;-80
2022/12/04 12:01:42;;;;;;;14.15;11.07;;;;;;;;;;6219683;28;20225;-80
2022/12/04 12:04:57;;;;;;;14.20;11.40;;;;;;;;;;6220859;28;20297;-77
2022/12/04 12:08:06;;;;;;;16.17;11.50;;;;;;;;;;6221188;28;20057;-81
2022/12/04 12:11:15;;;;;;;16.90;11.73;;;;;;;;;;6221287;28;20048;-81
2022/12/04 12:14:20;;;;;;;16.50;11.80;;;;;;;;;;6221684;28;20056;-76
2022/12/04 12:17:25;;;;;;;14.13;10.85;;;;;;;;;;6221583;28;20096;-78
2022/12/04 12:20:31;;;;;;;16.63;10.88;;;;;;;;;;6224507;28;20399;-79
2022/12/04 12:23:47;;;;;;;16.25;11.65;;;;;;;;;;6220152;28;20250;-81
2022/12/04 12:26:55;;;;;;;17.08;11.57;;;;;;;;;;6222444;28;20105;-81
2022/12/04 12:30:00;;;;;;;16.02;11.27;;;;;;;;;;6219957;28;20338;-80
2022/12/04 12:33:10;;;;;;;15.25;11.55;;;;;;;;;;6219526;28;20049;-81
2022/12/04 12:36:14;;;;;;;15.77;10.73;;;;;;;;;;6217482;28;20351;-80
2022/12/04 12:39:20;;;;;;;16.07;12.27;;;;;;;;;;6220284;28;20082;-81
2022/12/04 12:42:25;;;;;;;16.48;12.00;;;;;;;;;;6222406;28;20046;-80
2022/12/04 12:45:32;;;;;;;15.88;11.75;;;;;;;;;;6220972;28;20054;-80
2022/12/04 12:48:36;;;;;;;16.55;11.68;;;;;;;;;;6221873;28;20053;-78
2022/12/04 12:51:41;;;;;;;17.10;12.95;;;;;;;;;;6218958;28;20223;-78
2022/12/04 12:54:43;;;;;;;;;;;;;;;;;;6221381;28;20104;-78
2022/12/04 12:57:50;;;;;;;16.20;12.73;;;;;;;;;;6222529;28;19948;-80
2022/12/04 13:00:56;;;;;;;16.25;12.20;;;;;;;;;;6218474;28;20101;-80
2022/12/04 13:04:00;;;;;;;15.00;11.63;;;;;;;;;;6219358;28;20058;-80
2022/12/04 13:07:09;;;;;;;15.55;12.50;;;;;;;;;;6222744;28;20050;-80
2022/12/04 13:10:15;;;;;;;17.20;13.18;;;;;;;;;;6219410;28;20104;-76
2022/12/04 13:13:22;;;;;;;17.58;12.40;;;;;;;;;;6222280;28;20058;-78
2022/12/04 13:16:25;;;;;;;14.60;11.80;;;;;;;;;;6219890;28;20061;-79
2022/12/04 13:19:31;;;;;;;15.13;11.30;;;;;;;;;;6224711;28;22115;-80
2022/12/04 13:22:39;;;;;;;15.13;11.48;;;;;;;;;;6225316;28;20548;-81
2022/12/04 13:25:47;;;;;;;15.13;12.20;;;;;;;;;;6226933;28;20346;-81
2022/12/04 13:28:54;;;;;;;15.13;12.13;;;;;;;;;;6225213;28;20054;-79
2022/12/04 13:32:01;;;;;;;16.42;11.90;;;;;;;;;;6224991;28;20090;-81
2022/12/04 13:35:09;;;;;;;15.43;12.02;;;;;;;;;;6225875;28;20058;-81
2022/12/04 13:38:18;;;;;;;15.85;12.73;;;;;;;;;;6226423;28;20060;-80
2022/12/04 13:41:21;;;;;;;19.45;13.18;;;;;;;;;;6224057;28;20054;-80
2022/12/04 13:44:25;;;;;;;17.42;12.55;;;;;;;;;;6225340;28;20327;-80
2022/12/04 13:47:30;;;;;;;18.25;13.52;;;;;;;;;;6224942;28;20103;-76
2022/12/04 13:50:33;;;;;;;17.95;13.48;;;;;;;;;;6225442;28;20046;-80
2022/12/04 13:53:39;;;;;;;16.70;12.65;;;;;;;;;;6222077;28;20100;-80
2022/12/04 13:56:42;;;;;;;18.40;12.95;;;;;;;;;;6224456;28;20041;-80
2022/12/04 13:59:46;;;;;;;16.73;12.68;;;;;;;;;;6225722;28;20080;-77
2022/12/04 14:02:50;;;;;;;16.88;12.45;;;;;;;;;;6224937;28;20042;-80
2022/12/04 14:05:52;;;;;;;16.75;13.10;;;;;;;;;;6223786;28;20088;-77
2022/12/04 14:08:56;;;;;;;16.67;12.55;;;;;;;;;;6224484;28;20322;-80
2022/12/04 14:12:00;;;;;;;16.38;12.27;;;;;;;;;;6223305;28;20092;-79
2022/12/04 14:15:04;;;;;;;;;;;;;;;;;;6224620;28;20057;-76
2022/12/04 14:18:17;;;;;;;14.80;11.13;;;;;;;;;;6225295;28;19921;-79
2022/12/04 14:21:19;;;;;;;14.43;10.75;;;;;;;;;;6224323;28;20638;-80
2022/12/04 14:24:33;;;;;;;14.05;10.55;;;;;;;;;;6226061;28;20050;-78
2022/12/04 14:27:43;;;;;;;14.45;10.27;;;;;;;;;;6221779;28;20112;-78
2022/12/04 14:30:58;;;;;;;13.80;10.13;;;;;;;;;;6224038;28;20101;-77
2022/12/04 14:34:02;;;;;;;14.15;10.73;;;;;;;;;;6223542;28;20057;-79
2022/12/04 14:37:05;;;;;;;15.43;11.07;;;;;;;;;;6225027;28;20065;-80
2022/12/04 14:40:07;;;;;;;15.80;11.20;;;;;;;;;;6220491;28;20053;-80
2022/12/04 14:43:15;;;;;;;16.10;11.80;;;;;;;;;;6222459;28;20061;-79
2022/12/04 14:46:23;;;;;;;17.58;12.30;;;;;;;;;;6224723;28;20056;-78
2022/12/04 14:49:33;;;;;;;13.02;10.70;;;;;;;;;;6220677;28;20162;-79
2022/12/04 14:52:39;;;;;;;16.17;12.05;;;;;;;;;;6221691;28;20049;-79
2022/12/04 14:55:46;;;;;;;14.85;11.73;;;;;;;;;;6221814;28;20045;-79
2022/12/04 14:58:48;;;;;;;14.88;11.43;;;;;;;;;;6223865;28;20081;-79
2022/12/04 15:01:52;;;;;;;16.67;11.32;;;;;;;;;;6220381;28;20050;-79
2022/12/04 15:04:54;;;;;;;15.45;11.80;;;;;;;;;;6220341;28;20058;-80
2022/12/04 15:07:58;;;;;;;13.27;10.43;;;;;;;;;;6222556;28;20061;-79
2022/12/04 15:14:19;;;;;;;15.57;11.73;;;;;;;;;;6222614;28;20213;-77
2022/12/04 15:17:22;;;;;;;15.50;11.10;;;;;;;;;;6221860;28;20050;-79
2022/12/04 15:20:25;;;;;;;17.50;12.25;;;;;;;;;;6220107;28;20047;-79
2022/12/04 15:23:29;;;;;;;17.13;12.73;;;;;;;;;;6216529;28;20330;-79
2022/12/04 15:26:30;;;;;;;19.05;13.90;;;;;;;;;;6220741;28;20104;-79
2022/12/04 15:29:36;;;;;;;18.88;13.65;;;;;;;;;;6219510;28;20100;-79
2022/12/04 15:32:39;;;;;;;18.77;13.55;;;;;;;;;;6220129;28;20045;-77
2022/12/04 15:35:47;;;;;;;22.00;14.63;;;;;;;;;;6217001;28;20049;-79
2022/12/04 15:38:49;;;;;;;23.38;14.48;;;;;;;;;;6223962;28;20108;-78
2022/12/04 15:41:51;;;;;;;22.17;15.15;;;;;;;;;;6221720;28;20053;-79
2022/12/04 15:44:59;;;;;;;20.02;13.88;;;;;;;;;;6223506;28;20046;-79
2022/12/04 15:48:02;;;;;;;21.33;14.60;;;;;;;;;;6219477;28;20066;-78
2022/12/04 15:51:06;;;;;;;21.25;14.48;;;;;;;;;;6222102;28;20280;-79
2022/12/04 15:54:13;;;;;;;19.63;13.27;;;;;;;;;;6222742;28;20104;-79
2022/12/04 15:57:20;;;;;;;20.27;13.60;;;;;;;;;;6217432;28;20058;-79
2022/12/04 16:00:27;;;;;;;18.63;12.77;;;;;;;;;;6219132;28;20176;-79
2022/12/04 16:03:32;;;;;;;18.77;12.10;;;;;;;;;;6220426;28;20058;-77
2022/12/04 16:06:35;;;;;;;16.52;11.18;;;;;;;;;;6222420;28;20050;-78
2022/12/04 16:09:37;;;;;;;18.70;11.77;;;;;;;;;;6219105;28;20052;-78
2022/12/04 16:12:38;;;;;;;18.25;11.32;;;;;;;;;;6219832;28;20100;-78
2022/12/04 16:15:42;;;;;;;18.50;12.57;;;;;;;;;;6218943;28;20335;-79
2022/12/04 16:18:46;;;;;;;19.60;13.50;;;;;;;;;;6220303;28;20050;-77
2022/12/04 16:21:48;;;;;;;19.45;12.48;;;;;;;;;;6224621;28;20113;-80
2022/12/04 16:24:49;;;;;;;20.35;13.23;;;;;;;;;;6219412;28;20052;-81
2022/12/04 16:27:51;;;;;;;19.70;12.70;;;;;;;;;;6222899;28;20273;-80
2022/12/04 16:30:53;;;;;;;19.90;13.85;;;;;;;;;;6223255;28;20109;-80
2022/12/04 16:33:56;;;;;;;21.10;14.48;;;;;;;;;;6221351;28;20104;-78
2022/12/04 16:36:57;;;;;;;21.90;13.57;;;;;;;;;;6223430;28;20045;-80
2022/12/04 16:40:05;;;;;;;21.42;14.38;;;;;;;;;;6223728;28;20305;-75
2022/12/04 16:43:06;;;;;;;20.00;13.65;;;;;;;;;;6221888;28;20053;-77
2022/12/04 16:46:12;;;;;;;20.23;14.02;;;;;;;;;;6220197;28;20054;-78
2022/12/04 16:49:15;;;;;;;19.90;13.50;;;;;;;;;;6223716;28;20058;-77
2022/12/04 16:52:17;;;;;;;21.45;13.82;;;;;;;;;;6225827;28;20278;-77
2022/12/04 16:55:20;;;;;;;21.77;14.40;;;;;;;;;;6225752;28;20049;-76
2022/12/04 16:58:22;;;;;;;22.67;14.35;;;;;;;;;;6227712;28;20053;-77
2022/12/04 17:01:25;;;;;;;21.33;13.20;;;;;;;;;;6222537;28;20084;-77
2022/12/04 17:04:28;;;;;;;20.83;13.73;;;;;;;;;;6226337;28;20061;-76
2022/12/04 17:07:30;;;;;;;21.38;14.38;;;;;;;;;;6224092;28;20050;-75
2022/12/04 17:10:32;;;;;;;21.73;14.00;;;;;;;;;;6223069;28;20053;-77
2022/12/04 17:13:33;;;;;;;19.77;13.32;;;;;;;;;;6223705;28;20054;-77
2022/12/04 17:16:35;;;;;;;20.92;13.25;;;;;;;;;;6225692;28;20061;-74
2022/12/04 17:19:38;;;;;;;19.92;13.80;;;;;;;;;;6223235;28;20104;-77
2022/12/04 17:22:40;;;;;;;22.03;15.10;;;;;;;;;;6223004;28;20124;-78
2022/12/04 17:25:42;;;;;;;19.83;13.95;;;;;;;;;;6225149;28;20045;-78
2022/12/04 17:28:44;;;;;;;20.33;14.02;;;;;;;;;;6225278;28;20050;-77
2022/12/04 17:31:45;;;;;;;20.30;13.68;;;;;;;;;;6223634;28;20045;-77
2022/12/04 17:34:48;;;;;;;22.05;14.30;;;;;;;;;;6223010;28;20057;-75
2022/12/04 17:37:50;;;;;;;22.80;14.50;;;;;;;;;;6224786;28;20067;-77
2022/12/04 17:40:59;;;;;;;22.42;15.25;;;;;;;;;;6224502;28;20066;-78
2022/12/04 17:44:00;;;;;;;25.95;15.98;;;;;;;;;;6223587;28;20066;-77
2022/12/04 17:47:02;;;;;;;26.17;16.73;;;;;;;;;;6223911;28;20053;-78
2022/12/04 17:50:07;;;;;;;27.88;19.25;;;;;;;;;;6224669;28;20069;-79
2022/12/04 17:53:08;;;;;;;27.65;18.75;;;;;;;;;;6222099;28;20285;-78
2022/12/04 17:56:12;;;;;;;25.33;18.10;;;;;;;;;;6221244;28;20058;-77
2022/12/04 17:59:14;;;;;;;28.05;18.25;;;;;;;;;;6222708;28;20054;-74
2022/12/04 18:02:15;;;;;;;23.83;16.95;;;;;;;;;;6222144;28;20058;-78
2022/12/04 18:05:18;;;;;;;22.30;16.30;;;;;;;;;;6221029;28;20302;-78
2022/12/04 18:08:20;;;;;;;27.10;16.45;;;;;;;;;;6226709;28;20058;-78
2022/12/04 18:11:24;;;;;;;22.27;15.40;;;;;;;;;;6224127;28;20152;-75
2022/12/04 18:14:26;;;;;;;24.55;16.42;;;;;;;;;;6223373;28;20088;-78
2022/12/04 18:17:27;;;;;;;23.00;14.98;;;;;;;;;;6222158;28;20093;-77